Stolt Dipper — ZCMY3 — position and weather

sailwx.info

Track history (hours):
 
Tides and Currents Weather Stations Pressure Air Temp Water Temp Dewpoint Dewpoint Depression Visibility Wind Speed Wind Dir Waves Ship Positions

Stolt Dipper

Last reported at 2016-Feb-13 23:33 UTC. Time now 2016-Feb-13 23:41 UTC.
Position N 51°22' E 004°13'.

Length 96 m; draft 6.2 m.

Type: Ship (hazmat cat B). MMSI: 319036000.

Date/timePositionNaut miles runAvg speedWind from/ knotsBaromVisibWave heightAir tempDewpointWater temp
2016-Feb-13 23:33N 51°22' E 004°13'7 7.4
2016-Feb-13 22:33N 51°24' E 004°02'7 6.7
2016-Feb-13 21:34N 51°21' E 003°53'9 8.6
2016-Feb-13 20:33N 51°25' E 003°40'8 7.6
2016-Feb-13 19:33N 51°25' E 003°28'1211.7
2016-Feb-13 18:31N 51°24' E 003°08'1212.6
2016-Feb-13 17:33N 51°22' E 002°49'1211.6
2016-Feb-13 16:33N 51°22' E 002°31'10 9.5
2016-Feb-13 15:33N 51°18' E 002°17'1413.9
2016-Feb-13 14:34N 51°11' E 001°58'1514.5
2016-Feb-13 13:33N 51°02' E 001°40'23011.9
2016-Feb-12 18:08N 50°01' W 004°10'712.6
2016-Feb-12 17:33N 50°00' W 004°21'1212.1
2016-Feb-12 16:33N 49°58' W 004°39'217 8.7
2016-Feb-11 15:33N 53°33' W 003°56'1414.2
2016-Feb-11 14:33N 53°33' W 003°32'1211.7
2016-Feb-11 13:33N 53°31' W 003°13'1010.2
2016-Feb-11 12:33N 53°24' W 003°00'5 5.3
2016-Feb-11 11:33N 53°19' W 002°57'1 1.0
2016-Feb-11 10:33N 53°18' W 002°56'4 3.5
2016-Feb-11 09:33N 53°17' W 002°50'4 3.9
2016-Feb-11 08:33N 53°20' W 002°46'0 0.1
2016-Feb-11 07:30N 53°20' W 002°45'0 0.0
2016-Feb-11 06:30N 53°20' W 002°45'0 0.0
2016-Feb-11 05:30N 53°20' W 002°45'0 0.0
2016-Feb-11 04:33N 53°20' W 002°45'0 0.0
2016-Feb-11 03:33N 53°20' W 002°45'0 0.0
2016-Feb-11 02:30N 53°20' W 002°45'0 0.0
2016-Feb-11 01:33N 53°20' W 002°45'0 0.0
2016-Feb-11 00:30N 53°20' W 002°45'0 0.0
2016-Feb-10 23:33N 53°20' W 002°45'0 0.0
2016-Feb-10 22:33N 53°20' W 002°45'0 0.0
2016-Feb-10 21:30N 53°20' W 002°45'0 0.0
2016-Feb-10 20:33N 53°20' W 002°45'0 0.0
2016-Feb-10 19:30N 53°20' W 002°45'0 0.0
2016-Feb-10 18:33N 53°20' W 002°45'0 0.0
2016-Feb-10 17:33N 53°20' W 002°45'0 0.0
2016-Feb-10 16:27N 53°20' W 002°45'0 0.0
2016-Feb-10 15:30N 53°20' W 002°45'0 0.0
2016-Feb-10 14:33N 53°20' W 002°45'0 0.0
2016-Feb-10 13:30N 53°20' W 002°45'0 0.0
2016-Feb-10 12:33N 53°20' W 002°45'0 0.1
2016-Feb-10 11:33N 53°20' W 002°46'1 0.9
2016-Feb-10 10:33N 53°19' W 002°45'0 0.0
2016-Feb-10 09:33N 53°19' W 002°45'0 0.0
2016-Feb-10 08:33N 53°19' W 002°45'1 0.9
2016-Feb-10 07:30N 53°20' W 002°46'0 0.0
2016-Feb-10 06:33N 53°20' W 002°46'0 0.0
2016-Feb-10 05:33N 53°20' W 002°46'0 0.0
2016-Feb-10 04:33N 53°20' W 002°46'0 0.0
2016-Feb-10 03:30N 53°20' W 002°46'0 0.0
2016-Feb-10 02:33N 53°20' W 002°46'0 0.0
2016-Feb-10 01:33N 53°20' W 002°46'0 0.0
2016-Feb-10 00:33N 53°20' W 002°46'0 0.0
2016-Feb-09 23:30N 53°20' W 002°46'0 0.0
2016-Feb-09 22:33N 53°20' W 002°46'0 0.0
2016-Feb-09 21:33N 53°20' W 002°46'0 0.0
2016-Feb-09 20:33N 53°20' W 002°46'0 0.0
2016-Feb-09 19:33N 53°20' W 002°46'0 0.0
2016-Feb-09 18:33N 53°20' W 002°46'0 0.0
2016-Feb-09 16:33N 53°20' W 002°46'0 0.0
2016-Feb-09 15:33N 53°20' W 002°46'1 1.1
2016-Feb-09 14:33N 53°19' W 002°45'6 5.7
2016-Feb-09 13:33N 53°18' W 002°55'4 3.8
2016-Feb-09 12:33N 53°21' W 002°58'6 6.2
2016-Feb-09 11:33N 53°27' W 003°02'8 7.6
2016-Feb-09 10:33N 53°31' W 003°13'8 8.0
2016-Feb-09 09:32N 53°31' W 003°26'9 8.7
2016-Feb-09 08:33N 53°31' W 003°41'9 9.2
2016-Feb-09 07:33N 53°28' W 003°56'62 3.9
2016-Feb-08 15:33N 54°14' W 005°08'1111.0
2016-Feb-08 14:33N 54°24' W 005°07'1211.6
2016-Feb-08 13:33N 54°35' W 005°16'1111.2
2016-Feb-08 12:33N 54°45' W 005°24'1312.5
2016-Feb-08 11:33N 54°56' W 005°34'1814.1
2016-Feb-08 10:18N 55°10' W 005°53'1216.1
2016-Feb-08 09:33N 55°20' W 006°05'1414.5
2016-Feb-08 08:33N 55°19' W 006°31'7 0.2
2016-Feb-07 00:33N 55°18' W 006°44'1212.1
2016-Feb-06 23:33N 55°23' W 006°24'1211.6
2016-Feb-06 22:33N 55°25' W 006°04'1312.6
2016-Feb-06 21:33N 55°15' W 005°51'1712.0
2016-Feb-06 20:09N 55°00' W 005°36'711.5
2016-Feb-06 19:32N 54°54' W 005°32'1111.5
2016-Feb-06 18:34N 54°43' W 005°26'1111.4
2016-Feb-06 17:34N 54°32' W 005°19'1212.3
2016-Feb-06 16:33N 54°20' W 005°13'6412.8
2016-Feb-06 11:33N 53°37' W 003°53'1313.5
2016-Feb-06 10:33N 53°33' W 003°31'1212.5
2016-Feb-06 09:34N 53°32' W 003°10'1111.2
2016-Feb-06 08:33N 53°23' W 002°59'4 3.9
2016-Feb-06 07:33N 53°19' W 002°56'4 3.7
2016-Feb-06 06:33N 53°17' W 002°51'4 4.5
2016-Feb-06 05:33N 53°20' W 002°46'0 0.0
2016-Feb-06 04:33N 53°20' W 002°46'0 0.0
2016-Feb-06 03:33N 53°20' W 002°46'0 0.0
2016-Feb-06 02:33N 53°20' W 002°46'0 0.0
2016-Feb-06 01:33N 53°20' W 002°46'0 0.0
2016-Feb-06 00:30N 53°20' W 002°46'0 0.0
2016-Feb-05 23:33N 53°20' W 002°46'0 0.0
2016-Feb-05 22:27N 53°20' W 002°46'0 0.0
2016-Feb-05 21:33N 53°20' W 002°46'0 0.0
2016-Feb-05 20:30N 53°20' W 002°46'0 0.0
2016-Feb-05 19:33N 53°20' W 002°46'0 0.0
2016-Feb-05 18:33N 53°20' W 002°46'0 0.0
2016-Feb-05 17:33N 53°20' W 002°46'0 0.0
2016-Feb-05 16:33N 53°20' W 002°46'0 0.0
2016-Feb-05 15:33N 53°20' W 002°46'0 0.0
2016-Feb-05 14:33N 53°20' W 002°46'0 0.0
2016-Feb-05 13:30N 53°20' W 002°46'0 0.0
2016-Feb-05 12:33N 53°20' W 002°46'0 0.1
2016-Feb-05 11:33N 53°20' W 002°45'5 5.3
2016-Feb-05 10:33N 53°17' W 002°53'3 3.2
2016-Feb-05 09:33N 53°19' W 002°57'1 1.4
2016-Feb-05 08:33N 53°21' W 002°58'9 9.0
2016-Feb-05 07:33N 53°29' W 003°05'1010.2
2016-Feb-05 06:34N 53°31' W 003°21'4 3.9
2016-Feb-05 05:33N 53°31' W 003°28'1111.4
2016-Feb-05 04:33N 53°29' W 003°46'  
Track history (hours):
 
Tides and Currents Weather Stations Pressure Air Temp Water Temp Dewpoint Dewpoint Depression Visibility Wind Speed Wind Dir Waves Ship Positions

Stolt Dipper

Last reported at 2016-Feb-13 23:33 UTC. Time now 2016-Feb-13 23:41 UTC.
Position N 51°22' E 004°13'.

Length 96 m; draft 6.2 m.

Type: Ship (hazmat cat B). MMSI: 319036000.

Date/timePositionNaut miles runAvg speedWind from/ knotsBaromVisibWave heightAir tempDewpointWater temp
2016-Feb-13 23:33N 51°22' E 004°13'7 7.4
2016-Feb-13 22:33N 51°24' E 004°02'7 6.7
2016-Feb-13 21:34N 51°21' E 003°53'9 8.6
2016-Feb-13 20:33N 51°25' E 003°40'8 7.6
2016-Feb-13 19:33N 51°25' E 003°28'1211.7
2016-Feb-13 18:31N 51°24' E 003°08'1212.6
2016-Feb-13 17:33N 51°22' E 002°49'1211.6
2016-Feb-13 16:33N 51°22' E 002°31'10 9.5
2016-Feb-13 15:33N 51°18' E 002°17'1413.9
2016-Feb-13 14:34N 51°11' E 001°58'1514.5
2016-Feb-13 13:33N 51°02' E 001°40'23011.9
2016-Feb-12 18:08N 50°01' W 004°10'712.6
2016-Feb-12 17:33N 50°00' W 004°21'1212.1
2016-Feb-12 16:33N 49°58' W 004°39'217 8.7
2016-Feb-11 15:33N 53°33' W 003°56'1414.2
2016-Feb-11 14:33N 53°33' W 003°32'1211.7
2016-Feb-11 13:33N 53°31' W 003°13'1010.2
2016-Feb-11 12:33N 53°24' W 003°00'5 5.3
2016-Feb-11 11:33N 53°19' W 002°57'1 1.0
2016-Feb-11 10:33N 53°18' W 002°56'4 3.5
2016-Feb-11 09:33N 53°17' W 002°50'4 3.9
2016-Feb-11 08:33N 53°20' W 002°46'0 0.1
2016-Feb-11 07:30N 53°20' W 002°45'0 0.0
2016-Feb-11 06:30N 53°20' W 002°45'0 0.0
2016-Feb-11 05:30N 53°20' W 002°45'0 0.0
2016-Feb-11 04:33N 53°20' W 002°45'0 0.0
2016-Feb-11 03:33N 53°20' W 002°45'0 0.0
2016-Feb-11 02:30N 53°20' W 002°45'0 0.0
2016-Feb-11 01:33N 53°20' W 002°45'0 0.0
2016-Feb-11 00:30N 53°20' W 002°45'0 0.0
2016-Feb-10 23:33N 53°20' W 002°45'0 0.0
2016-Feb-10 22:33N 53°20' W 002°45'0 0.0
2016-Feb-10 21:30N 53°20' W 002°45'0 0.0
2016-Feb-10 20:33N 53°20' W 002°45'0 0.0
2016-Feb-10 19:30N 53°20' W 002°45'0 0.0
2016-Feb-10 18:33N 53°20' W 002°45'0 0.0
2016-Feb-10 17:33N 53°20' W 002°45'0 0.0
2016-Feb-10 16:27N 53°20' W 002°45'0 0.0
2016-Feb-10 15:30N 53°20' W 002°45'0 0.0
2016-Feb-10 14:33N 53°20' W 002°45'0 0.0
2016-Feb-10 13:30N 53°20' W 002°45'0 0.0
2016-Feb-10 12:33N 53°20' W 002°45'0 0.1
2016-Feb-10 11:33N 53°20' W 002°46'1 0.9
2016-Feb-10 10:33N 53°19' W 002°45'0 0.0
2016-Feb-10 09:33N 53°19' W 002°45'0 0.0
2016-Feb-10 08:33N 53°19' W 002°45'1 0.9
2016-Feb-10 07:30N 53°20' W 002°46'0 0.0
2016-Feb-10 06:33N 53°20' W 002°46'0 0.0
2016-Feb-10 05:33N 53°20' W 002°46'0 0.0
2016-Feb-10 04:33N 53°20' W 002°46'0 0.0
2016-Feb-10 03:30N 53°20' W 002°46'0 0.0
2016-Feb-10 02:33N 53°20' W 002°46'0 0.0
2016-Feb-10 01:33N 53°20' W 002°46'0 0.0
2016-Feb-10 00:33N 53°20' W 002°46'0 0.0
2016-Feb-09 23:30N 53°20' W 002°46'0 0.0
2016-Feb-09 22:33N 53°20' W 002°46'0 0.0
2016-Feb-09 21:33N 53°20' W 002°46'0 0.0
2016-Feb-09 20:33N 53°20' W 002°46'0 0.0
2016-Feb-09 19:33N 53°20' W 002°46'0 0.0
2016-Feb-09 18:33N 53°20' W 002°46'0 0.0
2016-Feb-09 16:33N 53°20' W 002°46'0 0.0
2016-Feb-09 15:33N 53°20' W 002°46'1 1.1
2016-Feb-09 14:33N 53°19' W 002°45'6 5.7
2016-Feb-09 13:33N 53°18' W 002°55'4 3.8
2016-Feb-09 12:33N 53°21' W 002°58'6 6.2
2016-Feb-09 11:33N 53°27' W 003°02'8 7.6
2016-Feb-09 10:33N 53°31' W 003°13'8 8.0
2016-Feb-09 09:32N 53°31' W 003°26'9 8.7
2016-Feb-09 08:33N 53°31' W 003°41'9 9.2
2016-Feb-09 07:33N 53°28' W 003°56'62 3.9
2016-Feb-08 15:33N 54°14' W 005°08'1111.0
2016-Feb-08 14:33N 54°24' W 005°07'1211.6
2016-Feb-08 13:33N 54°35' W 005°16'1111.2
2016-Feb-08 12:33N 54°45' W 005°24'1312.5
2016-Feb-08 11:33N 54°56' W 005°34'1814.1
2016-Feb-08 10:18N 55°10' W 005°53'1216.1
2016-Feb-08 09:33N 55°20' W 006°05'1414.5
2016-Feb-08 08:33N 55°19' W 006°31'7 0.2
2016-Feb-07 00:33N 55°18' W 006°44'1212.1
2016-Feb-06 23:33N 55°23' W 006°24'1211.6
2016-Feb-06 22:33N 55°25' W 006°04'1312.6
2016-Feb-06 21:33N 55°15' W 005°51'1712.0
2016-Feb-06 20:09N 55°00' W 005°36'711.5
2016-Feb-06 19:32N 54°54' W 005°32'1111.5
2016-Feb-06 18:34N 54°43' W 005°26'1111.4
2016-Feb-06 17:34N 54°32' W 005°19'1212.3
2016-Feb-06 16:33N 54°20' W 005°13'6412.8
2016-Feb-06 11:33N 53°37' W 003°53'1313.5
2016-Feb-06 10:33N 53°33' W 003°31'1212.5
2016-Feb-06 09:34N 53°32' W 003°10'1111.2
2016-Feb-06 08:33N 53°23' W 002°59'4 3.9
2016-Feb-06 07:33N 53°19' W 002°56'4 3.7
2016-Feb-06 06:33N 53°17' W 002°51'4 4.5
2016-Feb-06 05:33N 53°20' W 002°46'0 0.0
2016-Feb-06 04:33N 53°20' W 002°46'0 0.0
2016-Feb-06 03:33N 53°20' W 002°46'0 0.0
2016-Feb-06 02:33N 53°20' W 002°46'0 0.0
2016-Feb-06 01:33N 53°20' W 002°46'0 0.0
2016-Feb-06 00:30N 53°20' W 002°46'0 0.0
2016-Feb-05 23:33N 53°20' W 002°46'0 0.0
2016-Feb-05 22:27N 53°20' W 002°46'0 0.0
2016-Feb-05 21:33N 53°20' W 002°46'0 0.0
2016-Feb-05 20:30N 53°20' W 002°46'0 0.0
2016-Feb-05 19:33N 53°20' W 002°46'0 0.0
2016-Feb-05 18:33N 53°20' W 002°46'0 0.0
2016-Feb-05 17:33N 53°20' W 002°46'0 0.0
2016-Feb-05 16:33N 53°20' W 002°46'0 0.0
2016-Feb-05 15:33N 53°20' W 002°46'0 0.0
2016-Feb-05 14:33N 53°20' W 002°46'0 0.0
2016-Feb-05 13:30N 53°20' W 002°46'0 0.0
2016-Feb-05 12:33N 53°20' W 002°46'0 0.1
2016-Feb-05 11:33N 53°20' W 002°45'5 5.3
2016-Feb-05 10:33N 53°17' W 002°53'3 3.2
2016-Feb-05 09:33N 53°19' W 002°57'1 1.4
2016-Feb-05 08:33N 53°21' W 002°58'9 9.0
2016-Feb-05 07:33N 53°29' W 003°05'1010.2
2016-Feb-05 06:34N 53°31' W 003°21'4 3.9
2016-Feb-05 05:33N 53°31' W 003°28'1111.4
2016-Feb-05 04:33N 53°29' W 003°46'  

Dump ship's entire track history